Weather at Avila Heliport

Public forecast

Using degrees Celsius for public forecast. Weather courtesy of forecast.io.

Closest aviation weather report (METAR) to Avila Heliport

Closest report is Simón Bolívar International Airport, 18.3 nm (33.9 km) WNW.

2024/06/18 13:00 (retrieved 8 minutes ago)

SVMI 181300Z 07005KT 9999 SCT016 SCT070 28/25 Q1012

Closest aviation forecast (TAF) to Avila Heliport

Closest forecast is Simón Bolívar International Airport, 18.3 nm (33.9 km) WNW.

2024/06/18 12:21 (retrieved 47 minutes ago)

TAF SVMI 181000Z 1812/1912 00000KT 9999 SCT016 BKN070 TX33/1818Z TN22/1908Z BECMG1814/1818 07006KT SCT016 FM181900 09010KT SCT016 SCT080